Time;durP1;ratioP1;P1;durP2;ratioP2;P2;SDS_P1;SDS_P2;PMS_P1;PMS_P2;Temp;Humidity;BMP_temperature;BMP_pressure;BME280_temperature;BME280_humidity;BME280_pressure;Samples;Min_cycle;Max_cycle;Signal;HPM_P1;HPM_P2
2022/12/02 00:00:30;;;;;;;81.30;29.98;;;;;;;1.35;100.00;96093.06;1030303;28;20253;-70
2022/12/02 00:01:00;;;;;;;76.43;28.10;;;;;;;1.31;100.00;96084.09;1026803;28;20018;-71
2022/12/02 00:01:31;;;;;;;82.82;29.08;;;;;;;1.28;100.00;96084.50;1022379;29;20170;-70
2022/12/02 00:02:24;;;;;;;76.70;27.80;;;;;;;1.36;100.00;96092.06;1016780;29;20031;-70
2022/12/02 00:02:55;;;;;;;80.38;27.67;;;;;;;1.36;100.00;96092.06;1018355;29;20030;-70
2022/12/02 00:03:26;;;;;;;84.97;29.55;;;;;;;1.16;100.00;96064.38;1021609;29;20290;-71
2022/12/02 00:03:56;;;;;;;85.22;30.30;;;;;;;1.37;100.00;96088.47;1022536;28;20039;-70
2022/12/02 00:04:27;;;;;;;84.22;28.90;;;;;;;1.39;100.00;96092.47;1026386;28;20152;-70
2022/12/02 00:05:02;;;;;;;81.47;28.95;;;;;;;1.36;100.00;96086.88;1030416;28;20044;-70
2022/12/02 00:05:33;;;;;;;87.78;27.88;;;;;;;1.42;100.00;96083.53;1027819;28;20085;-70
2022/12/02 00:06:03;;;;;;;93.32;29.30;;;;;;;1.41;100.00;96093.06;1033498;28;20276;-69
2022/12/02 00:06:35;;;;;;;77.32;27.42;;;;;;;1.38;100.00;96090.88;1030633;28;20080;-70
2022/12/02 00:07:07;;;;;;;86.45;27.63;;;;;;;1.41;100.00;96092.28;1026335;28;20053;-69
2022/12/02 00:07:37;;;;;;;73.45;26.92;;;;;;;1.38;100.00;96090.06;1022116;28;20784;-70
2022/12/02 00:08:19;;;;;;;77.03;27.33;;;;;;;1.39;100.00;96092.47;1022855;28;20293;-69
2022/12/02 00:08:49;;;;;;;77.63;27.15;;;;;;;1.33;100.00;96084.69;1030437;28;20027;-69
2022/12/02 00:09:27;;;;;;;76.80;27.92;;;;;;;1.32;100.00;96080.50;1033802;28;20734;-70
2022/12/02 00:09:58;;;;;;;88.50;27.70;;;;;;;1.31;100.00;96081.53;1038334;28;20033;-69
2022/12/02 00:10:32;;;;;;;76.65;27.27;;;;;;;1.29;100.00;96080.91;1039817;28;20764;-69
2022/12/02 00:11:07;;;;;;;86.10;28.67;;;;;;;1.34;100.00;96094.84;1038475;28;20099;-69
2022/12/02 00:11:38;;;;;;;73.13;26.38;;;;;;;1.36;100.00;96092.06;1030266;28;20277;-70
2022/12/02 00:12:15;;;;;;;74.47;26.63;;;;;;;1.31;100.00;96084.09;1018568;28;20259;-70
2022/12/02 00:12:45;;;;;;;80.38;25.85;;;;;;;1.36;100.00;96090.25;1020690;29;20026;-70
2022/12/02 00:13:20;;;;;;;97.13;29.38;;;;;;;1.37;100.00;96091.06;1023027;29;20278;-69
2022/12/02 00:13:51;;;;;;;75.20;25.80;;;;;;;1.35;100.00;96080.13;1021318;29;20090;-70
2022/12/02 00:14:25;;;;;;;89.35;28.67;;;;;;;1.41;100.00;96081.94;1028775;28;20340;-70
2022/12/02 00:14:58;;;;;;;79.57;27.50;;;;;;;1.39;100.00;96087.28;1031858;28;20086;-70
2022/12/02 00:15:37;;;;;;;90.15;28.60;;;;;;;1.43;100.00;96087.69;1022147;28;20282;-69
2022/12/02 00:16:21;;;;;;;85.55;28.63;;;;;;;1.43;100.00;96079.94;1025119;28;20274;-69
2022/12/02 00:16:51;;;;;;;89.63;27.00;;;;;;;1.46;100.00;96079.53;1025360;28;20357;-69
2022/12/02 00:17:22;;;;;;;91.07;27.85;;;;;;;1.36;100.00;96073.97;1032741;28;20280;-70
2022/12/02 00:17:53;;;;;;;75.55;27.77;;;;;;;1.36;100.00;96079.91;1030977;28;20432;-69
2022/12/02 00:18:23;;;;;;;81.55;26.50;;;;;;;1.33;100.00;96066.59;1031117;28;20486;-70
2022/12/02 00:18:54;;;;;;;78.75;27.20;;;;;;;1.40;100.00;96062.22;1030788;28;20757;-71
2022/12/02 00:19:24;;;;;;;83.80;28.05;;;;;;;1.44;100.00;96078.94;1027992;28;20117;-70
2022/12/02 00:19:55;;;;;;;78.53;26.88;;;;;;;1.41;100.00;96079.34;1034274;28;20087;-70
2022/12/02 00:20:25;;;;;;;80.10;26.90;;;;;;;1.39;100.00;96073.56;1026754;28;20046;-70
2022/12/02 00:20:56;;;;;;;72.80;27.10;;;;;;;1.39;100.00;96081.31;1022177;28;20449;-71
2022/12/02 00:21:27;;;;;;;86.22;27.58;;;;;;;1.36;100.00;96076.53;1022529;28;20054;-72
2022/12/02 00:21:57;;;;;;;75.38;26.50;;;;;;;1.37;100.00;96078.13;1022563;28;20058;-70
2022/12/02 00:22:28;;;;;;;81.28;27.45;;;;;;;1.39;100.00;96076.94;1021785;28;20293;-70
2022/12/02 00:22:59;;;;;;;81.68;28.33;;;;;;;1.36;100.00;96072.16;1033480;28;20077;-69
2022/12/02 00:23:29;;;;;;;76.82;27.90;;;;;;;1.41;100.00;96080.13;1030483;28;20030;-70
2022/12/02 00:24:00;;;;;;;76.53;25.88;;;;;;;1.36;100.00;96076.53;1030433;28;20266;-69
2022/12/02 00:24:30;;;;;;;76.82;28.08;;;;;;;1.34;100.00;96079.34;1034861;28;20034;-71
2022/12/02 00:25:01;;;;;;;83.97;28.20;;;;;;;1.31;100.00;96073.75;1034521;28;20337;-70
2022/12/02 00:25:31;;;;;;;83.93;28.35;;;;;;;1.31;100.00;96066.00;1034342;28;20502;-70
2022/12/02 00:26:02;;;;;;;77.38;26.13;;;;;;;1.39;100.00;96073.56;1026670;28;20034;-69
2022/12/02 00:26:32;;;;;;;77.05;27.55;;;;;;;1.34;100.00;96076.75;1026300;28;20027;-69
2022/12/02 00:27:03;;;;;;;83.20;29.00;;;;;;;1.35;100.00;96077.53;1030563;28;20452;-70
2022/12/02 00:27:33;;;;;;;76.78;27.15;;;;;;;1.38;100.00;96071.97;1030597;28;20026;-70
2022/12/02 00:28:04;;;;;;;85.13;28.40;;;;;;;1.34;100.00;96081.09;1031460;28;20571;-70
2022/12/02 00:28:34;;;;;;;81.78;28.27;;;;;;;1.25;100.00;96061.63;1034631;28;20045;-70
2022/12/02 00:29:05;;;;;;;66.60;25.30;;;;;;;1.35;100.00;96074.97;1038330;28;20104;-70
2022/12/02 00:29:35;;;;;;;75.57;26.13;;;;;;;1.33;100.00;96071.75;1035413;28;20041;-70
2022/12/02 00:30:06;;;;;;;72.93;27.40;;;;;;;1.37;100.00;96072.97;1034844;28;20147;-70
2022/12/02 00:30:37;;;;;;;90.63;27.00;;;;;;;1.34;100.00;96068.19;1026339;28;20033;-69
2022/12/02 00:31:07;;;;;;;79.50;27.25;;;;;;;1.44;100.00;96068.59;1030660;28;20041;-69
2022/12/02 00:31:38;;;;;;;80.45;26.58;;;;;;;1.46;100.00;96068.41;1030085;28;20029;-70
2022/12/02 00:32:08;;;;;;;74.05;27.83;;;;;;;1.48;100.00;96067.22;1030439;28;20019;-69
2022/12/02 00:32:39;;;;;;;83.40;28.00;;;;;;;1.49;100.00;96073.19;1034029;28;20030;-70
2022/12/02 00:33:09;;;;;;;81.85;27.08;;;;;;;1.47;100.00;96067.41;1035394;28;20050;-67
2022/12/02 00:33:40;;;;;;;83.25;26.75;;;;;;;1.46;100.00;96069.19;1033190;28;20462;-70
2022/12/02 00:34:10;;;;;;;81.63;27.05;;;;;;;1.46;100.00;96071.00;1038751;28;20018;-70
2022/12/02 00:34:41;;;;;;;68.60;25.35;;;;;;;1.25;100.00;96038.34;1034414;28;20022;-70
2022/12/02 00:35:11;;;;;;;78.30;27.08;;;;;;;1.41;100.00;96072.38;1035839;28;20105;-70
2022/12/02 00:35:42;;;;;;;78.57;26.65;;;;;;;1.41;100.00;96069.81;1035933;28;20068;-69
2022/12/02 00:36:12;;;;;;;79.45;26.55;;;;;;;1.42;100.00;96065.41;1038801;28;20399;-70
2022/12/02 00:36:43;;;;;;;79.43;26.50;;;;;;;1.43;100.00;96072.16;1038580;28;20113;-69
2022/12/02 00:37:13;;;;;;;85.80;28.00;;;;;;;1.46;100.00;96060.66;1038434;28;20780;-69
2022/12/02 00:37:44;;;;;;;86.75;28.13;;;;;;;1.39;100.00;96074.34;1033814;28;20037;-69
2022/12/02 00:38:14;;;;;;;79.28;26.50;;;;;;;1.40;100.00;96068.19;1027416;28;20043;-69
2022/12/02 00:38:45;;;;;;;78.88;26.60;;;;;;;1.37;100.00;96071.16;1029488;28;20026;-69
2022/12/02 00:39:15;;;;;;;85.30;29.02;;;;;;;1.35;100.00;96072.38;1026698;28;20026;-70
2022/12/02 00:39:46;;;;;;;77.15;27.55;;;;;;;1.16;100.00;96043.69;1034081;28;20040;-69
2022/12/02 00:40:16;;;;;;;83.10;26.77;;;;;;;1.36;100.00;96076.53;1030179;28;20400;-70
2022/12/02 00:40:47;;;;;;;82.63;27.10;;;;;;;1.35;100.00;96069.78;1034775;28;20026;-70
2022/12/02 00:41:17;;;;;;;81.00;28.17;;;;;;;1.35;100.00;96068.00;1030621;28;20404;-70
2022/12/02 00:41:47;;;;;;;86.07;28.27;;;;;;;1.34;100.00;96069.00;1030615;28;20018;-70
2022/12/02 00:42:18;;;;;;;84.30;28.25;;;;;;;1.30;100.00;96062.59;1034497;28;20029;-70
2022/12/02 00:42:48;;;;;;;83.50;27.42;;;;;;;1.34;100.00;96068.19;1034759;28;20033;-70
2022/12/02 00:46:38;;;;;;;80.57;26.75;;;;;;;1.16;100.00;96064.38;1038942;28;20294;-70
2022/12/02 00:47:08;;;;;;;83.68;27.48;;;;;;;1.22;100.00;96064.59;1034963;28;20304;-69
2022/12/02 00:47:38;;;;;;;83.88;27.45;;;;;;;1.23;100.00;96061.78;1035174;28;20420;-70
2022/12/02 00:48:09;;;;;;;80.05;28.13;;;;;;;1.25;100.00;96070.16;1035168;28;20030;-68
2022/12/02 00:48:40;;;;;;;83.82;28.08;;;;;;;1.25;100.00;96070.16;1038025;28;20128;-69
2022/12/02 00:49:12;;;;;;;85.50;27.23;;;;;;;1.22;100.00;96060.22;1039003;28;20026;-69
2022/12/02 00:49:42;;;;;;;84.00;28.50;;;;;;;1.23;100.00;96066.16;1034372;28;20060;-70
2022/12/02 00:50:13;;;;;;;86.60;29.40;;;;;;;1.23;100.00;96066.97;1030468;28;20285;-70
2022/12/02 00:50:43;;;;;;;82.60;28.77;;;;;;;1.21;100.00;96066.38;1022793;28;20023;-70
2022/12/02 00:51:14;;;;;;;81.25;28.33;;;;;;;1.20;100.00;96069.16;1026521;28;20031;-69
2022/12/02 00:51:44;;;;;;;84.80;28.63;;;;;;;1.12;100.00;96055.41;1030573;28;20599;-69
2022/12/02 00:52:14;;;;;;;80.88;27.92;;;;;;;1.18;100.00;96067.56;1025824;28;20077;-69
2022/12/02 00:52:45;;;;;;;92.35;30.58;;;;;;;1.22;100.00;96065.38;1026432;28;20445;-69
2022/12/02 00:53:15;;;;;;;80.47;28.75;;;;;;;1.22;100.00;96065.38;1030998;28;20033;-69
2022/12/02 00:53:46;;;;;;;91.78;30.58;;;;;;;1.24;100.00;96070.34;1030451;28;20030;-69
2022/12/02 00:54:16;;;;;;;87.32;31.00;;;;;;;1.24;100.00;96065.16;1034815;28;20799;-69
2022/12/02 00:54:47;;;;;;;91.35;30.92;;;;;;;1.27;100.00;96075.13;1042111;28;20036;-69
2022/12/02 00:55:21;;;;;;;91.03;29.85;;;;;;;1.24;100.00;96062.59;1039043;28;20033;-69
2022/12/02 00:55:51;;;;;;;88.97;30.70;;;;;;;1.26;100.00;96060.63;1037464;28;20412;-70
2022/12/02 00:56:22;;;;;;;89.15;29.50;;;;;;;1.28;100.00;96068.97;1037433;28;20802;-70
2022/12/02 00:56:52;;;;;;;85.97;27.75;;;;;;;1.28;100.00;96064.59;1026122;28;20555;-70
2022/12/02 00:57:23;;;;;;;80.75;27.95;;;;;;;1.26;100.00;96065.78;1030711;28;20026;-70
2022/12/02 00:57:53;;;;;;;100.25;31.23;;;;;;;1.27;100.00;96063.00;1030029;28;20482;-68
2022/12/02 00:58:23;;;;;;;94.38;29.23;;;;;;;1.32;100.00;96067.59;1030428;28;20034;-70
2022/12/02 00:58:54;;;;;;;96.75;29.98;;;;;;;1.32;100.00;96065.00;1034124;28;20096;-69
2022/12/02 00:59:24;;;;;;;85.07;31.70;;;;;;;1.33;100.00;96071.75;1022223;28;20034;-69
2022/12/02 00:59:55;;;;;;;94.32;30.35;;;;;;;1.32;100.00;96065.00;1030627;28;20046;-70
2022/12/02 01:00:25;;;;;;;91.78;29.33;;;;;;;1.32;100.00;96068.38;1026121;28;20080;-68
2022/12/02 01:00:56;;;;;;;92.93;29.25;;;;;;;1.20;100.00;96041.50;1026551;28;20041;-69
2022/12/02 01:01:27;;;;;;;95.55;30.52;;;;;;;1.29;100.00;96057.63;1030877;28;20112;-69
2022/12/02 01:01:57;;;;;;;95.63;31.33;;;;;;;1.35;100.00;96064.63;1029484;28;20042;-69
2022/12/02 01:02:27;;;;;;;90.38;29.90;;;;;;;1.26;100.00;96050.28;1029870;28;20105;-69
2022/12/02 01:02:58;;;;;;;84.63;28.38;;;;;;;1.33;100.00;96064.00;1030627;28;20030;-70
2022/12/02 01:03:28;;;;;;;86.03;28.38;;;;;;;1.35;100.00;96069.78;1034392;28;20811;-69
2022/12/02 01:03:59;;;;;;;88.93;29.40;;;;;;;1.26;100.00;96053.66;1038912;28;20042;-69
2022/12/02 01:04:29;;;;;;;90.68;28.42;;;;;;;1.33;100.00;96066.59;1039191;28;20029;-70
2022/12/02 01:05:00;;;;;;;87.03;28.02;;;;;;;1.32;100.00;96060.63;1042566;28;20576;-68
2022/12/02 01:05:30;;;;;;;91.35;28.85;;;;;;;1.35;100.00;96064.63;1038785;28;20051;-69
2022/12/02 01:06:01;;;;;;;82.03;28.65;;;;;;;1.36;100.00;96058.44;1033436;28;20606;-70
2022/12/02 01:06:31;;;;;;;85.35;29.17;;;;;;;1.36;100.00;96061.03;1032071;28;20033;-70
2022/12/02 01:07:02;;;;;;;86.65;29.88;;;;;;;1.37;100.00;96062.63;1033157;28;20022;-70
2022/12/02 01:07:32;;;;;;;94.65;30.80;;;;;;;1.35;100.00;96064.63;1036768;28;20041;-69
2022/12/02 01:08:03;;;;;;;78.07;26.60;;;;;;;1.31;100.00;96053.09;1038899;28;20030;-70
2022/12/02 01:08:33;;;;;;;87.00;30.00;;;;;;;1.32;100.00;96065.00;1028591;28;20105;-69
2022/12/02 01:09:04;;;;;;;81.00;29.17;;;;;;;1.37;100.00;96062.63;1026129;28;20094;-70
2022/12/02 01:09:34;;;;;;;83.90;29.52;;;;;;;1.38;100.00;96056.47;1020931;28;20743;-69
2022/12/02 01:10:05;;;;;;;84.07;27.83;;;;;;;1.37;100.00;96058.22;1026556;28;20086;-69
2022/12/02 01:10:35;;;;;;;84.70;29.95;;;;;;;1.39;100.00;96058.06;1026383;28;20026;-70
2022/12/02 01:11:06;;;;;;;84.18;27.70;;;;;;;1.40;100.00;96057.06;1025955;28;20287;-69
2022/12/02 01:11:36;;;;;;;72.28;27.83;;;;;;;1.46;100.00;96058.84;1026317;28;20027;-69
2022/12/02 01:12:07;;;;;;;89.13;28.17;;;;;;;1.46;100.00;96056.28;1023082;28;20034;-69
2022/12/02 01:12:37;;;;;;;71.18;26.70;;;;;;;1.42;100.00;96058.47;1029892;28;20523;-70
2022/12/02 01:13:08;;;;;;;74.40;28.27;;;;;;;1.42;100.00;96053.28;1026226;28;20118;-70
2022/12/02 01:13:38;;;;;;;67.35;26.45;;;;;;;1.42;100.00;96055.06;1026556;28;20139;-70
2022/12/02 01:14:09;;;;;;;82.30;28.10;;;;;;;1.47;100.00;96057.84;1026253;28;20054;-70
2022/12/02 01:14:39;;;;;;;78.78;27.58;;;;;;;1.50;100.00;96057.47;1032152;28;20073;-68
2022/12/02 01:15:10;;;;;;;90.28;31.30;;;;;;;1.48;100.00;96056.09;1030322;28;20520;-68
2022/12/02 01:15:40;;;;;;;88.38;30.38;;;;;;;1.41;100.00;96058.66;1027852;28;20181;-70
2022/12/02 01:16:11;;;;;;;67.97;26.10;;;;;;;1.20;100.00;96031.16;1030109;28;20026;-69
2022/12/02 01:16:41;;;;;;;70.53;26.90;;;;;;;1.38;100.00;96053.88;1024874;28;20504;-70
2022/12/02 01:17:12;;;;;;;73.68;27.00;;;;;;;1.38;100.00;96064.22;1025806;28;20094;-69
2022/12/02 01:17:42;;;;;;;76.13;27.55;;;;;;;1.36;100.00;96056.66;1034237;28;20028;-69
2022/12/02 01:18:13;;;;;;;83.05;28.02;;;;;;;1.36;100.00;96063.63;1034103;28;20045;-70
2022/12/02 01:18:43;;;;;;;77.13;26.48;;;;;;;1.33;100.00;96046.69;1034148;28;20045;-70
2022/12/02 01:19:14;;;;;;;77.40;26.80;;;;;;;1.39;100.00;96065.81;1028592;28;20124;-69
2022/12/02 01:19:44;;;;;;;84.25;28.05;;;;;;;1.41;100.00;96053.50;1029671;28;20031;-70
2022/12/02 01:20:15;;;;;;;77.80;26.80;;;;;;;1.32;100.00;96046.91;1028224;28;20038;-69
2022/12/02 01:20:45;;;;;;;78.47;27.40;;;;;;;1.38;100.00;96059.06;1026111;28;20035;-69
2022/12/02 01:21:16;;;;;;;80.38;28.75;;;;;;;1.40;100.00;96049.28;1032325;28;20196;-68
2022/12/02 01:21:46;;;;;;;75.47;27.05;;;;;;;1.36;100.00;96050.69;1034044;28;20081;-69
2022/12/02 01:22:17;;;;;;;84.40;28.52;;;;;;;1.39;100.00;96050.28;1033914;28;20123;-69
2022/12/02 01:22:47;;;;;;;80.25;27.70;;;;;;;1.38;100.00;96048.72;1034547;28;20045;-69
2022/12/02 01:23:17;;;;;;;85.82;27.52;;;;;;;1.41;100.00;96056.09;1030234;28;20014;-70
2022/12/02 01:23:48;;;;;;;77.45;27.45;;;;;;;1.38;100.00;96053.88;1034378;28;20116;-70
2022/12/02 01:24:18;;;;;;;88.15;27.17;;;;;;;1.37;100.00;96045.31;1029310;28;20030;-70
2022/12/02 01:24:49;;;;;;;79.25;29.10;;;;;;;1.36;100.00;96050.69;1026153;28;20034;-70
2022/12/02 01:25:19;;;;;;;76.63;27.63;;;;;;;1.32;100.00;96049.50;1037594;28;20075;-69
2022/12/02 01:25:50;;;;;;;80.15;27.60;;;;;;;1.31;100.00;96050.50;1038819;28;20591;-70
2022/12/02 01:26:20;;;;;;;73.22;27.05;;;;;;;1.30;100.00;96056.63;1041386;28;20022;-69
2022/12/02 01:26:51;;;;;;;88.55;29.45;;;;;;;1.28;100.00;96048.31;1042911;28;20025;-69
2022/12/02 01:27:21;;;;;;;78.47;27.20;;;;;;;1.27;100.00;96057.03;1043641;28;20029;-69
2022/12/02 01:27:52;;;;;;;79.68;27.58;;;;;;;1.25;100.00;96049.47;1042771;28;20037;-69
2022/12/02 01:28:22;;;;;;;83.25;28.48;;;;;;;1.26;100.00;96048.47;1039271;28;20158;-69
2022/12/02 01:28:53;;;;;;;81.22;28.20;;;;;;;1.28;100.00;96048.31;1034813;28;20030;-70
2022/12/02 01:29:23;;;;;;;68.55;26.48;;;;;;;1.30;100.00;96052.25;1034860;28;20026;-69
2022/12/02 01:29:54;;;;;;;75.88;27.42;;;;;;;1.28;100.00;96048.31;1034929;28;20022;-69
2022/12/02 01:30:24;;;;;;;91.82;28.92;;;;;;;1.30;100.00;96046.31;1033865;28;20026;-70
2022/12/02 01:30:55;;;;;;;85.15;28.23;;;;;;;1.27;100.00;96051.84;1034825;28;20029;-70
2022/12/02 01:31:25;;;;;;;89.43;28.60;;;;;;;1.26;100.00;96045.91;1027127;28;20054;-70
2022/12/02 01:31:55;;;;;;;82.20;26.75;;;;;;;1.25;100.00;96048.69;1030789;28;20053;-70
2022/12/02 01:32:26;;;;;;;83.93;28.30;;;;;;;1.24;100.00;96047.09;1034464;28;20052;-71
2022/12/02 01:32:56;;;;;;;81.55;26.20;;;;;;;1.24;100.00;96044.50;1035004;28;20408;-70
2022/12/02 01:33:27;;;;;;;77.75;26.58;;;;;;;1.23;100.00;96043.69;1039960;28;20076;-69
2022/12/02 01:33:57;;;;;;;79.03;28.90;;;;;;;1.23;100.00;96043.69;1043360;28;20402;-70
2022/12/02 01:34:28;;;;;;;80.68;27.60;;;;;;;1.22;100.00;96039.53;1043081;28;20025;-69
2022/12/02 01:34:58;;;;;;;73.25;27.70;;;;;;;1.24;100.00;96036.75;1043115;28;20419;-69
2022/12/02 01:35:29;;;;;;;81.38;27.50;;;;;;;1.21;100.00;96045.72;1039279;28;20025;-70
2022/12/02 01:35:59;;;;;;;86.15;27.92;;;;;;;1.21;100.00;96042.31;1034825;28;20033;-70
2022/12/02 01:36:30;;;;;;;80.38;27.08;;;;;;;1.17;100.00;96040.13;1030938;28;20030;-69
2022/12/02 01:37:00;;;;;;;89.95;28.90;;;;;;;1.20;100.00;96045.88;1029419;28;20035;-69
2022/12/02 01:37:31;;;;;;;86.97;29.85;;;;;;;1.20;100.00;96045.88;1030836;28;20046;-69
2022/12/02 01:38:01;;;;;;;88.90;28.38;;;;;;;1.23;100.00;96040.31;1027140;28;20109;-69
2022/12/02 01:38:32;;;;;;;89.63;28.58;;;;;;;1.22;100.00;96044.69;1027688;28;20031;-70
2022/12/02 01:39:02;;;;;;;89.30;28.92;;;;;;;1.21;100.00;96048.28;1030841;28;20035;-69
2022/12/02 01:39:33;;;;;;;99.70;29.85;;;;;;;1.24;100.00;96047.09;1023290;28;20031;-70
2022/12/02 01:40:04;;;;;;;85.55;30.13;;;;;;;1.24;100.00;96047.09;1026841;28;20031;-69
2022/12/02 01:40:34;;;;;;;96.85;29.70;;;;;;;1.26;100.00;96039.94;1030713;28;20403;-69
2022/12/02 01:41:05;;;;;;;84.07;28.42;;;;;;;1.27;100.00;96042.31;1027327;28;20330;-69
2022/12/02 01:41:35;;;;;;;89.38;27.38;;;;;;;1.24;100.00;96031.56;1031063;28;20026;-69
2022/12/02 01:42:06;;;;;;;83.45;27.77;;;;;;;1.27;100.00;96034.56;1029104;28;20342;-70
2022/12/02 01:42:36;;;;;;;82.53;28.52;;;;;;;1.31;100.00;96042.75;1026291;28;20026;-69
2022/12/02 01:43:07;;;;;;;80.75;29.00;;;;;;;1.25;100.00;96033.97;1026848;28;20026;-69
2022/12/02 01:43:37;;;;;;;88.20;27.13;;;;;;;1.33;100.00;96045.91;1030062;28;20022;-70
2022/12/02 01:44:08;;;;;;;90.40;28.73;;;;;;;1.26;100.00;96035.56;1027416;28;20145;-69
2022/12/02 01:44:38;;;;;;;74.07;26.20;;;;;;;1.27;100.00;96044.91;1023697;29;20026;-69
2022/12/02 01:45:09;;;;;;;85.93;28.80;;;;;;;1.24;100.00;96039.31;1019941;28;20020;-70
2022/12/02 01:45:40;;;;;;;88.70;28.90;;;;;;;1.25;100.00;96033.19;1023216;28;20055;-70
2022/12/02 01:46:10;;;;;;;78.50;27.48;;;;;;;1.25;100.00;96046.09;1023694;29;20027;-69
2022/12/02 01:46:41;;;;;;;81.40;27.30;;;;;;;1.16;100.00;96032.56;1027645;28;20482;-70
2022/12/02 01:47:11;;;;;;;91.45;29.77;;;;;;;1.24;100.00;96036.75;1027550;28;20022;-70
2022/12/02 01:47:41;;;;;;;89.75;28.67;;;;;;;1.25;100.00;96038.34;1028000;28;20026;-70
2022/12/02 01:48:12;;;;;;;92.47;28.08;;;;;;;1.26;100.00;96034.78;1023510;29;20031;-69
2022/12/02 01:48:42;;;;;;;99.07;30.88;;;;;;;1.26;100.00;96040.72;1024347;28;20027;-69
2022/12/02 01:49:13;;;;;;;92.35;30.52;;;;;;;1.23;100.00;96030.00;1031828;28;20022;-70
2022/12/02 01:49:43;;;;;;;87.35;29.45;;;;;;;1.30;100.00;96044.50;1031651;28;20015;-70
2022/12/02 01:50:14;;;;;;;84.97;28.85;;;;;;;1.31;100.00;96038.38;1027640;28;20257;-69
2022/12/02 01:50:45;;;;;;;84.22;28.40;;;;;;;1.33;100.00;96036.34;1026867;28;20027;-70
2022/12/02 01:51:16;;;;;;;87.60;28.45;;;;;;;1.33;100.00;96036.34;1023643;29;20164;-69
2022/12/02 01:51:46;;;;;;;86.43;28.77;;;;;;;1.13;100.00;96005.31;1020015;29;20035;-69
2022/12/02 01:52:17;;;;;;;80.07;27.75;;;;;;;1.32;100.00;96033.97;1025178;28;20028;-70
2022/12/02 01:52:47;;;;;;;79.40;29.23;;;;;;;1.33;100.00;96038.16;1031258;28;20026;-69
2022/12/02 01:53:18;;;;;;;81.53;27.77;;;;;;;1.31;100.00;96033.19;1027962;28;20504;-69
2022/12/02 01:53:48;;;;;;;88.15;27.73;;;;;;;1.30;100.00;96033.38;1031427;28;20026;-70
2022/12/02 01:54:19;;;;;;;82.13;28.77;;;;;;;1.30;100.00;96035.97;1027954;28;20023;-70
2022/12/02 01:54:50;;;;;;;80.90;29.40;;;;;;;1.30;100.00;96030.78;1027599;28;20030;-70
2022/12/02 01:55:21;;;;;;;81.78;26.80;;;;;;;1.30;100.00;96030.78;1027582;28;20065;-70
2022/12/02 01:55:52;;;;;;;82.32;27.95;;;;;;;1.27;100.00;96031.19;1032661;28;20157;-70
2022/12/02 01:56:23;;;;;;;84.55;28.30;;;;;;;1.27;100.00;96037.13;1031643;28;20818;-70
2022/12/02 01:56:54;;;;;;;81.50;27.80;;;;;;;1.25;100.00;96022.84;1027566;28;20033;-70
2022/12/02 01:57:26;;;;;;;90.55;29.45;;;;;;;1.25;100.00;96038.34;1028907;28;20356;-70
2022/12/02 01:57:56;;;;;;;82.43;27.52;;;;;;;1.14;100.00;96022.44;1027612;28;20019;-69
2022/12/02 01:58:28;;;;;;;79.38;28.23;;;;;;;1.21;100.00;96029.38;1020055;29;20274;-68
2022/12/02 01:58:58;;;;;;;87.30;28.63;;;;;;;1.18;100.00;96025.41;1020748;29;20032;-69
2022/12/02 01:59:29;;;;;;;81.18;26.95;;;;;;;1.17;100.00;96026.38;1023648;29;20274;-70
2022/12/02 02:00:00;;;;;;;86.18;28.52;;;;;;;1.23;100.00;96030.00;1028378;28;20023;-70
2022/12/02 02:00:30;;;;;;;84.82;27.73;;;;;;;1.20;100.00;96030.38;1031650;28;20475;-69
2022/12/02 02:01:00;;;;;;;85.95;27.83;;;;;;;1.23;100.00;96035.94;1031585;28;20026;-69
2022/12/02 02:01:32;;;;;;;72.40;28.25;;;;;;;1.27;100.00;96028.59;1028324;28;20031;-70
2022/12/02 02:02:02;;;;;;;82.85;27.73;;;;;;;1.20;100.00;96020.84;1027795;28;20035;-69
2022/12/02 02:02:35;;;;;;;83.60;27.13;;;;;;;1.26;100.00;96030.38;1031564;28;20275;-70
2022/12/02 02:03:05;;;;;;;78.05;25.83;;;;;;;1.29;100.00;96030.00;1032477;28;20034;-70
2022/12/02 02:03:36;;;;;;;72.90;27.05;;;;;;;1.33;100.00;96035.56;1036270;28;20257;-69
2022/12/02 02:04:06;;;;;;;89.65;27.38;;;;;;;1.31;100.00;96025.44;1031958;28;20042;-70
2022/12/02 02:04:36;;;;;;;74.63;26.70;;;;;;;1.32;100.00;96039.16;1027998;28;20057;-70
2022/12/02 02:05:17;;;;;;;79.10;26.52;;;;;;;1.29;100.00;96022.25;1027526;28;20027;-70
2022/12/02 02:05:47;;;;;;;85.45;27.83;;;;;;;1.34;100.00;96031.97;1026265;28;20142;-70
2022/12/02 02:06:18;;;;;;;82.68;28.05;;;;;;;1.33;100.00;96028.59;1024782;28;20030;-69
2022/12/02 02:06:48;;;;;;;84.38;27.45;;;;;;;1.32;100.00;96028.81;1026693;28;20086;-69
2022/12/02 02:07:19;;;;;;;76.82;25.75;;;;;;;1.30;100.00;96025.63;1027529;28;20018;-70
2022/12/02 02:07:54;;;;;;;81.72;27.33;;;;;;;1.35;100.00;96024.03;1019518;28;20028;-70
2022/12/02 02:08:24;;;;;;;78.45;27.65;;;;;;;1.38;100.00;96025.44;1028062;28;20027;-70
2022/12/02 02:08:55;;;;;;;82.60;27.23;;;;;;;1.36;100.00;96024.84;1027449;28;20254;-69
2022/12/02 02:09:25;;;;;;;83.55;28.55;;;;;;;1.39;100.00;96033.00;1027045;28;20041;-70
2022/12/02 02:09:56;;;;;;;77.95;27.60;;;;;;;1.34;100.00;96024.22;1023538;29;20114;-70
2022/12/02 02:10:26;;;;;;;73.30;27.23;;;;;;;1.35;100.00;96024.03;1027481;28;20111;-69
2022/12/02 02:10:57;;;;;;;82.55;27.60;;;;;;;1.38;100.00;96026.25;1028118;28;20027;-70
2022/12/02 02:11:27;;;;;;;74.70;27.35;;;;;;;1.37;100.00;96026.41;1027515;28;20037;-70
2022/12/02 02:11:58;;;;;;;84.63;28.58;;;;;;;1.35;100.00;96025.84;1023563;29;20042;-70
2022/12/02 02:12:28;;;;;;;88.00;28.27;;;;;;;1.35;100.00;96031.00;1023696;28;20019;-70
2022/12/02 02:12:59;;;;;;;78.57;26.13;;;;;;;1.34;100.00;96021.66;1031605;28;20034;-70
2022/12/02 02:13:29;;;;;;;83.20;25.63;;;;;;;1.38;100.00;96022.88;1024040;29;20027;-70
2022/12/02 02:14:00;;;;;;;76.50;26.08;;;;;;;1.35;100.00;96024.03;1023621;29;20031;-70
2022/12/02 02:14:31;;;;;;;75.57;27.38;;;;;;;1.41;100.00;96033.59;1022675;28;20497;-70
2022/12/02 02:15:05;;;;;;;79.70;28.13;;;;;;;1.39;100.00;96025.25;1027904;28;20033;-69
2022/12/02 02:15:39;;;;;;;71.10;26.73;;;;;;;1.34;100.00;96016.47;1031540;28;20500;-70
2022/12/02 02:16:12;;;;;;;72.07;25.95;;;;;;;1.17;100.00;96003.94;1031656;28;20261;-70
2022/12/02 02:16:42;;;;;;;67.10;26.05;;;;;;;1.26;100.00;96025.22;1023477;29;20263;-69
2022/12/02 02:17:13;;;;;;;70.75;25.42;;;;;;;1.28;100.00;96025.84;1028231;28;20715;-69
2022/12/02 02:17:43;;;;;;;72.63;25.63;;;;;;;1.29;100.00;96018.88;1028372;28;20110;-70
2022/12/02 02:18:14;;;;;;;72.53;26.02;;;;;;;1.26;100.00;96020.06;1031560;28;20400;-69
2022/12/02 02:18:44;;;;;;;70.20;26.35;;;;;;;1.15;100.00;96008.50;1027619;28;20074;-70
2022/12/02 02:19:15;;;;;;;73.05;26.45;;;;;;;1.21;100.00;96021.63;1027860;28;20027;-69
2022/12/02 02:19:45;;;;;;;64.18;25.48;;;;;;;1.29;100.00;96024.81;1027412;28;20460;-69
2022/12/02 02:20:18;;;;;;;80.22;26.48;;;;;;;1.19;100.00;96019.25;1027875;28;20027;-70
2022/12/02 02:20:49;;;;;;;77.57;27.85;;;;;;;1.22;100.00;96018.06;1023444;29;20103;-69
2022/12/02 02:21:22;;;;;;;73.25;25.83;;;;;;;1.19;100.00;96019.25;1023407;28;20911;-70
2022/12/02 02:21:52;;;;;;;77.28;27.00;;;;;;;1.26;100.00;96025.22;1027507;28;20145;-69
2022/12/02 02:22:48;;;;;;;73.93;26.70;;;;;;;1.26;100.00;96024.44;1022810;29;20692;-69
2022/12/02 02:23:21;;;;;;;71.15;25.70;;;;;;;1.31;100.00;96024.66;1027412;28;20114;-69
2022/12/02 02:23:51;;;;;;;79.13;26.88;;;;;;;1.33;100.00;96027.81;1022880;29;20430;-70
2022/12/02 02:24:23;;;;;;;73.05;25.70;;;;;;;1.34;100.00;96026.81;1030035;28;20304;-69
2022/12/02 02:24:53;;;;;;;81.10;28.10;;;;;;;1.31;100.00;96019.47;1031373;28;20029;-69
2022/12/02 02:25:24;;;;;;;72.53;26.70;;;;;;;1.31;100.00;96016.91;1027870;28;20262;-70
2022/12/02 02:25:56;;;;;;;74.85;26.40;;;;;;;1.30;100.00;96017.88;1031836;28;20697;-69
2022/12/02 02:26:27;;;;;;;72.18;24.95;;;;;;;1.33;100.00;96020.06;1028468;28;20026;-70